createdAt,value
2023-04-02T00:11:11.000Z,0
2023-04-02T00:26:32.356Z,0
2023-04-02T00:41:53.331Z,0
2023-04-02T00:57:14.302Z,0
2023-04-02T01:12:35.258Z,0
2023-04-02T01:27:56.248Z,0
2023-04-02T01:43:16.201Z,0
2023-04-02T01:58:37.206Z,0
2023-04-02T02:13:58.146Z,0
2023-04-02T02:29:19.108Z,0
2023-04-02T02:44:40.081Z,0
2023-04-02T03:15:22.000Z,0
2023-04-02T03:30:42.997Z,0
2023-04-02T03:46:03.961Z,0
2023-04-02T04:01:24.000Z,0
2023-04-02T04:16:45.889Z,0
2023-04-02T04:32:06.833Z,7
2023-04-02T04:47:27.764Z,6
2023-04-02T05:02:47.697Z,26
2023-04-02T05:18:08.621Z,52
2023-04-02T05:33:29.554Z,86
2023-04-02T05:48:50.000Z,141
2023-04-02T06:04:11.405Z,157
2023-04-02T06:19:32.332Z,366
2023-04-02T06:34:53.267Z,610
2023-04-02T06:50:14.185Z,803
2023-04-02T07:05:35.108Z,1382
2023-04-02T07:20:56.046Z,1065
2023-04-02T07:36:16.973Z,712
2023-04-02T07:51:37.889Z,1102
2023-04-02T08:06:58.818Z,1201
2023-04-02T08:22:18.755Z,1154
2023-04-02T08:37:39.694Z,843
2023-04-02T08:53:00.612Z,888
2023-04-02T09:08:21.540Z,809
2023-04-02T09:23:42.476Z,1012
2023-04-02T09:25:03.552Z,1026
2023-04-02T09:26:24.601Z,1115
2023-04-02T09:27:45.686Z,1203
2023-04-02T09:29:06.752Z,1387
2023-04-02T09:30:27.828Z,1362
2023-04-02T09:31:48.885Z,1412
2023-04-02T09:33:09.950Z,1330
2023-04-02T09:34:31.008Z,1292
2023-04-02T09:35:51.110Z,1171
2023-04-02T09:37:12.171Z,1112
2023-04-02T09:38:33.244Z,1040
2023-04-02T09:39:54.296Z,1058
2023-04-02T09:41:15.377Z,1100
2023-04-02T09:42:36.000Z,1194
2023-04-02T09:43:57.485Z,1175
2023-04-02T09:45:18.579Z,1211
2023-04-02T09:46:39.630Z,1152
2023-04-02T09:48:00.948Z,1218
2023-04-02T09:49:21.757Z,1262
2023-04-02T09:50:42.841Z,1153
2023-04-02T09:52:03.899Z,1151
2023-04-02T09:53:23.985Z,1136
2023-04-02T09:54:45.067Z,1215
2023-04-02T09:56:06.119Z,1275
2023-04-02T09:57:27.197Z,3072
2023-04-02T09:58:48.267Z,1600
2023-04-02T10:00:09.320Z,1454
2023-04-02T10:01:30.386Z,1365
2023-04-02T10:02:51.466Z,1323
2023-04-02T10:04:12.506Z,1331
2023-04-02T10:05:33.599Z,1451
2023-04-02T10:06:54.648Z,1485
2023-04-02T10:08:15.731Z,1441
2023-04-02T10:09:36.793Z,1654
2023-04-02T10:10:56.878Z,1646
2023-04-02T10:12:17.950Z,1638
2023-04-02T10:13:39.016Z,1751
2023-04-02T10:15:00.076Z,1854
2023-04-02T10:16:21.145Z,1845
2023-04-02T10:17:41.229Z,1806
2023-04-02T10:19:02.306Z,1847
2023-04-02T10:20:23.347Z,1857
2023-04-02T10:21:44.428Z,1802
2023-04-02T10:23:05.000Z,1685
2023-04-02T10:24:26.561Z,1539
2023-04-02T10:25:47.647Z,1560
2023-04-02T10:27:08.706Z,3072
2023-04-02T10:28:29.760Z,1591
2023-04-02T10:29:50.844Z,1438
2023-04-02T10:31:12.145Z,1403
2023-04-02T10:32:32.962Z,1429
2023-04-02T10:33:54.050Z,1368
2023-04-02T10:35:14.130Z,1274
2023-04-02T10:36:35.192Z,1301
2023-04-02T10:37:56.253Z,1356
2023-04-02T10:39:17.317Z,1426
2023-04-02T10:40:38.385Z,1531
2023-04-02T10:41:59.707Z,1607
2023-04-02T10:43:20.524Z,1574
2023-04-02T10:44:41.590Z,1677
2023-04-02T10:46:02.660Z,1706
2023-04-02T10:47:23.725Z,1834
2023-04-02T10:48:44.789Z,1995
2023-04-02T10:50:05.849Z,1996
2023-04-02T10:51:26.912Z,2149
2023-04-02T10:52:47.009Z,3072
2023-04-02T10:54:08.071Z,2024
2023-04-02T10:55:29.140Z,1918
2023-04-02T10:56:50.216Z,2131
2023-04-02T10:58:11.276Z,2201
2023-04-02T10:59:32.350Z,2080
2023-04-02T11:00:53.418Z,2095
2023-04-02T11:02:14.490Z,2056
2023-04-02T11:03:35.558Z,1715
2023-04-02T11:04:56.618Z,1510
2023-04-02T11:06:17.675Z,1324
2023-04-02T11:07:38.751Z,1277
2023-04-02T11:09:00.070Z,1335
2023-04-02T11:10:19.904Z,1621
2023-04-02T11:11:40.961Z,1571
2023-04-02T11:13:02.028Z,1514
2023-04-02T11:14:23.098Z,1415
2023-04-02T11:15:44.176Z,1496
2023-04-02T11:17:05.229Z,1544
2023-04-02T11:18:26.308Z,1557
2023-04-02T11:19:47.362Z,1753
2023-04-02T11:21:08.440Z,1970
2023-04-02T11:22:29.738Z,2089
2023-04-02T11:23:50.569Z,2298
2023-04-02T11:25:11.614Z,2528
2023-04-02T11:26:32.693Z,2790
2023-04-02T11:27:52.786Z,2818
2023-04-02T11:29:13.850Z,2684
2023-04-02T11:30:34.929Z,2579
2023-04-02T11:33:17.043Z,1959
2023-04-02T11:34:38.129Z,1743
2023-04-02T11:35:59.177Z,1840
2023-04-02T11:37:20.245Z,1751
2023-04-02T11:38:41.560Z,3072
2023-04-02T11:40:02.383Z,1676
2023-04-02T11:41:23.444Z,1820
2023-04-02T11:42:44.523Z,1850
2023-04-02T11:44:05.594Z,1762
2023-04-02T11:45:25.677Z,1770
2023-04-02T11:46:46.742Z,1703
2023-04-02T11:48:07.811Z,1768
2023-04-02T11:49:28.883Z,1890
2023-04-02T11:50:49.933Z,1969
2023-04-02T11:52:11.008Z,1940
2023-04-02T11:53:32.085Z,1999
2023-04-02T11:54:53.149Z,2060
2023-04-02T11:56:14.204Z,1988
2023-04-02T11:57:35.268Z,2001
2023-04-02T11:58:56.340Z,2042
2023-04-02T12:00:17.394Z,2427
2023-04-02T12:01:38.463Z,2521
2023-04-02T12:02:58.552Z,2191
2023-04-02T12:04:19.624Z,1934
2023-04-02T12:05:40.684Z,1793
2023-04-02T12:07:01.759Z,1715
2023-04-02T12:08:22.828Z,1699
2023-04-02T12:09:43.877Z,1786
2023-04-02T12:11:04.951Z,1975
2023-04-02T12:12:26.011Z,2112
2023-04-02T12:13:47.078Z,2189
2023-04-02T12:15:08.164Z,2210
2023-04-02T12:16:29.472Z,2124
2023-04-02T12:17:50.292Z,2015
2023-04-02T12:19:11.352Z,2031
2023-04-02T12:20:31.426Z,2036
2023-04-02T12:21:52.512Z,2046
2023-04-02T12:23:13.575Z,2068
2023-04-02T12:24:34.631Z,2095
2023-04-02T12:25:55.714Z,2129
2023-04-02T12:27:16.774Z,1842
2023-04-02T12:28:37.845Z,1816
2023-04-02T12:29:58.918Z,1754
2023-04-02T12:31:19.973Z,1756
2023-04-02T12:32:41.038Z,1747
2023-04-02T12:34:02.111Z,1772
2023-04-02T12:35:23.181Z,3072
2023-04-02T12:36:44.234Z,2046
2023-04-02T12:38:04.323Z,2207
2023-04-02T12:39:25.401Z,2201
2023-04-02T12:40:46.465Z,2097
2023-04-02T12:42:07.533Z,2153
2023-04-02T12:43:28.596Z,2254
2023-04-02T12:44:49.657Z,2493
2023-04-02T12:46:10.723Z,2784
2023-04-02T12:47:31.785Z,3039
2023-04-02T12:48:52.856Z,3008
2023-04-02T12:50:13.925Z,2796
2023-04-02T12:51:34.985Z,2499
2023-04-02T12:52:56.062Z,2370
2023-04-02T12:54:17.106Z,2289
2023-04-02T12:55:37.213Z,2222
2023-04-02T12:56:58.528Z,2061
2023-04-02T12:58:19.325Z,1911
2023-04-02T12:59:40.652Z,1812
2023-04-02T13:01:01.483Z,1752
2023-04-02T13:02:22.551Z,1720
2023-04-02T13:03:43.595Z,1711
2023-04-02T13:06:25.736Z,1580
2023-04-02T13:07:46.799Z,1544
2023-04-02T13:09:07.869Z,1508
2023-04-02T13:10:28.920Z,1447
2023-04-02T13:11:50.003Z,1346
2023-04-02T13:13:10.076Z,1291
2023-04-02T13:14:31.166Z,1256
2023-04-02T13:15:52.230Z,1218
2023-04-02T13:17:13.314Z,1240
2023-04-02T13:18:34.375Z,1286
2023-04-02T13:19:55.432Z,1320
2023-04-02T13:21:16.499Z,1439
2023-04-02T13:22:37.574Z,1510
2023-04-02T13:23:58.647Z,1435
2023-04-02T13:25:19.707Z,1411
2023-04-02T13:26:40.773Z,1378
2023-04-02T13:28:01.841Z,1378
2023-04-02T13:29:22.903Z,1436
2023-04-02T13:30:42.986Z,1496
2023-04-02T13:32:04.043Z,1507
2023-04-02T13:33:25.110Z,1509
2023-04-02T13:34:46.183Z,1576
2023-04-02T13:36:07.229Z,1587
2023-04-02T13:37:28.305Z,1687
2023-04-02T13:38:49.382Z,1714
2023-04-02T13:40:10.444Z,1759
2023-04-02T13:41:31.523Z,1847
2023-04-02T13:42:52.823Z,1802
2023-04-02T13:44:13.645Z,1888
2023-04-02T13:45:34.714Z,1936
2023-04-02T13:46:55.786Z,1810
2023-04-02T13:48:15.855Z,1681
2023-04-02T13:49:36.932Z,1616
2023-04-02T13:50:57.984Z,1585
2023-04-02T13:52:19.055Z,1677
2023-04-02T13:53:40.394Z,1770
2023-04-02T13:55:01.199Z,1799
2023-04-02T13:56:22.243Z,1768
2023-04-02T13:57:43.336Z,1742
2023-04-02T13:59:04.402Z,1773
2023-04-02T14:00:25.455Z,1737
2023-04-02T14:01:46.521Z,1783
2023-04-02T14:03:07.593Z,1822
2023-04-02T14:04:28.639Z,1659
2023-04-02T14:05:48.761Z,1399
2023-04-02T14:07:10.074Z,1137
2023-04-02T14:08:30.896Z,1061
2023-04-02T14:09:51.942Z,1111
2023-04-02T14:11:13.019Z,1194
2023-04-02T14:12:34.094Z,3072
2023-04-02T14:13:55.152Z,1498
2023-04-02T14:15:16.225Z,1665
2023-04-02T14:16:37.283Z,1698
2023-04-02T14:17:58.369Z,1614
2023-04-02T14:19:19.437Z,1571
2023-04-02T14:20:40.499Z,1577
2023-04-02T14:22:01.575Z,1647
2023-04-02T14:23:21.638Z,1683
2023-04-02T14:24:42.722Z,1656
2023-04-02T14:26:03.796Z,1748
2023-04-02T14:27:24.868Z,1833
2023-04-02T14:28:45.925Z,1882
2023-04-02T14:30:07.008Z,1864
2023-04-02T14:31:28.000Z,1762
2023-04-02T14:32:49.132Z,1805
2023-04-02T14:34:10.199Z,1861
2023-04-02T14:35:31.272Z,1875
2023-04-02T14:36:52.319Z,1897
2023-04-02T14:38:13.414Z,1929
2023-04-02T14:39:34.476Z,1921
2023-04-02T14:40:54.555Z,1839
2023-04-02T14:42:15.000Z,1834
2023-04-02T14:43:36.678Z,1745
2023-04-02T14:44:58.003Z,1692
2023-04-02T14:46:18.829Z,1627
2023-04-02T14:47:40.146Z,1560
2023-04-02T14:48:59.982Z,1441
2023-04-02T14:50:21.051Z,1406
2023-04-02T14:51:42.128Z,1503
2023-04-02T14:53:03.180Z,3072
2023-04-02T14:54:24.234Z,1675
2023-04-02T14:55:45.000Z,1653
2023-04-02T14:57:06.369Z,1633
2023-04-02T14:58:27.463Z,1642
2023-04-02T14:59:48.514Z,1644
2023-04-02T15:01:09.595Z,1636
2023-04-02T15:02:30.645Z,1591
2023-04-02T15:03:51.723Z,1551
2023-04-02T15:05:12.781Z,1536
2023-04-02T15:07:53.935Z,1512
2023-04-02T15:09:15.001Z,1433
2023-04-02T15:10:36.078Z,1423
2023-04-02T15:11:57.382Z,1465
2023-04-02T15:13:18.217Z,1577
2023-04-02T15:14:39.268Z,1679
2023-04-02T15:16:00.337Z,1687
2023-04-02T15:17:21.419Z,1701
2023-04-02T15:18:42.482Z,1649
2023-04-02T15:20:03.548Z,1621
2023-04-02T15:21:24.601Z,1343
2023-04-02T15:22:45.668Z,1292
2023-04-02T15:24:05.746Z,1470
2023-04-02T15:25:27.066Z,3072
2023-04-02T15:26:47.891Z,1340
2023-04-02T15:28:08.948Z,1282
2023-04-02T15:29:30.017Z,1216
2023-04-02T15:30:51.100Z,1114
2023-04-02T15:32:12.134Z,989
2023-04-02T15:33:33.226Z,1013
2023-04-02T15:34:54.284Z,3072
2023-04-02T15:36:15.349Z,1191
2023-04-02T15:37:36.424Z,1218
2023-04-02T15:38:57.499Z,1212
2023-04-02T15:40:18.536Z,1175
2023-04-02T15:41:38.890Z,1147
2023-04-02T15:42:59.717Z,1094
2023-04-02T15:44:20.789Z,1049
2023-04-02T15:45:41.825Z,1030
2023-04-02T15:47:02.909Z,1055
2023-04-02T15:48:23.955Z,1057
2023-04-02T15:49:45.038Z,1032
2023-04-02T15:51:06.112Z,993
2023-04-02T15:52:27.432Z,3072
2023-04-02T15:53:48.254Z,774
2023-04-02T15:55:09.565Z,666
2023-04-02T15:56:30.382Z,667
2023-04-02T15:57:51.452Z,643
2023-04-02T15:59:11.543Z,661
2023-04-02T16:00:32.603Z,697
2023-04-02T16:01:53.681Z,706
2023-04-02T16:03:14.000Z,731
2023-04-02T16:04:35.799Z,754
2023-04-02T16:05:56.000Z,3072
2023-04-02T16:07:17.939Z,806
2023-04-02T16:08:39.011Z,850
2023-04-02T16:10:00.060Z,925
2023-04-02T16:11:21.148Z,945
2023-04-02T16:12:42.210Z,966
2023-04-02T16:14:03.285Z,980
2023-04-02T16:15:24.353Z,1010
2023-04-02T16:16:44.421Z,1048
2023-04-02T16:18:05.503Z,1055
2023-04-02T16:19:26.555Z,1042
2023-04-02T16:20:47.635Z,1014
2023-04-02T16:22:08.695Z,998
2023-04-02T16:23:29.771Z,1045
2023-04-02T16:24:50.835Z,1073
2023-04-02T16:26:11.883Z,1056
2023-04-02T16:27:32.953Z,1044
2023-04-02T16:28:54.023Z,1012
2023-04-02T16:30:15.094Z,984
2023-04-02T16:31:36.155Z,957
2023-04-02T16:32:57.237Z,921
2023-04-02T16:34:17.316Z,886
2023-04-02T16:35:38.617Z,851
2023-04-02T16:36:59.434Z,816
2023-04-02T16:38:20.516Z,771
2023-04-02T16:39:41.585Z,3072
2023-04-02T16:41:02.651Z,699
2023-04-02T16:42:23.693Z,667
2023-04-02T16:43:44.776Z,626
2023-04-02T16:45:05.845Z,613
2023-04-02T16:46:27.153Z,611
2023-04-02T16:47:47.981Z,594
2023-04-02T16:49:09.045Z,560
2023-04-02T16:50:30.115Z,3072
2023-04-02T16:51:50.208Z,485
2023-04-02T16:53:11.264Z,460
2023-04-02T16:54:32.000Z,443
2023-04-02T16:55:53.394Z,420
2023-04-02T16:57:14.461Z,402
2023-04-02T16:58:35.533Z,378
2023-04-02T16:59:56.603Z,361
2023-04-02T17:01:17.678Z,363
2023-04-02T17:02:38.985Z,378
2023-04-02T17:03:59.807Z,402
2023-04-02T17:05:20.882Z,398
2023-04-02T17:06:41.944Z,372
2023-04-02T17:08:03.015Z,3072
2023-04-02T17:09:23.094Z,333
2023-04-02T17:10:44.160Z,304
2023-04-02T17:12:05.229Z,288
2023-04-02T17:13:26.296Z,260
2023-04-02T17:14:47.362Z,233
2023-04-02T17:16:08.438Z,205
2023-04-02T17:17:29.484Z,189
2023-04-02T17:18:50.562Z,179
2023-04-02T17:20:11.630Z,172
2023-04-02T17:21:32.681Z,166
2023-04-02T17:22:53.753Z,152
2023-04-02T17:24:14.820Z,3072
2023-04-02T17:25:35.894Z,128
2023-04-02T17:26:55.973Z,119
2023-04-02T17:28:17.037Z,102
2023-04-02T17:29:38.108Z,88
2023-04-02T17:30:59.193Z,86
2023-04-02T17:32:20.253Z,74
2023-04-02T17:33:41.335Z,68
2023-04-02T17:35:02.386Z,61
2023-04-02T17:36:23.468Z,50
2023-04-02T17:37:44.533Z,45
2023-04-02T17:39:05.583Z,46
2023-04-02T17:40:26.663Z,41
2023-04-02T17:41:47.732Z,31
2023-04-02T17:43:08.802Z,26
2023-04-02T17:45:49.929Z,20
2023-04-02T17:47:11.005Z,13
2023-04-02T17:48:32.069Z,11
2023-04-02T17:49:53.135Z,11
2023-04-02T17:51:14.206Z,9
2023-04-02T17:52:35.274Z,9
2023-04-02T17:53:56.328Z,5
2023-04-02T17:55:17.411Z,3
2023-04-02T17:56:38.475Z,3
2023-04-02T17:57:59.525Z,4
2023-04-02T17:59:20.607Z,2
2023-04-02T18:00:41.676Z,1
2023-04-02T18:02:01.747Z,7
2023-04-02T18:03:22.864Z,0
2023-04-02T18:04:43.963Z,0
2023-04-02T18:06:05.089Z,0
2023-04-02T18:07:26.433Z,0
2023-04-02T18:08:47.304Z,0
2023-04-02T18:10:08.376Z,1
2023-04-02T18:11:29.428Z,1
2023-04-02T18:12:50.539Z,0
2023-04-02T18:14:11.650Z,0
2023-04-02T18:15:32.738Z,0
2023-04-02T18:16:53.883Z,0
2023-04-02T18:18:14.977Z,0
2023-04-02T18:19:35.106Z,0
2023-04-02T18:20:56.456Z,0
2023-04-02T18:22:17.323Z,0
2023-04-02T18:23:38.430Z,0
2023-04-02T18:24:59.544Z,0
2023-04-02T18:26:20.658Z,0
2023-04-02T18:27:41.770Z,0
2023-04-02T18:29:02.876Z,0
2023-04-02T18:30:23.989Z,0
2023-04-02T18:31:45.088Z,0
2023-04-02T18:33:06.204Z,0
2023-04-02T18:34:27.552Z,0
2023-04-02T18:35:48.426Z,0
2023-04-02T18:37:08.554Z,0
2023-04-02T18:38:29.644Z,0
2023-04-02T18:39:50.769Z,0
2023-04-02T18:41:11.871Z,0
2023-04-02T18:42:32.995Z,0
2023-04-02T18:43:54.105Z,0
2023-04-02T18:45:15.217Z,0
2023-04-02T18:46:36.320Z,0
2023-04-02T18:47:57.663Z,0
2023-04-02T18:49:18.542Z,0
2023-04-02T18:50:39.641Z,0
2023-04-02T18:52:00.742Z,0
2023-04-02T18:53:21.863Z,0
2023-04-02T18:54:41.988Z,0
2023-04-02T18:56:03.102Z,0
2023-04-02T18:57:24.209Z,0
2023-04-02T18:58:45.316Z,0
2023-04-02T19:00:06.439Z,0
2023-04-02T19:01:27.541Z,0
2023-04-02T19:02:48.640Z,0
2023-04-02T19:04:09.998Z,0
2023-04-02T19:05:30.863Z,0
2023-04-02T19:06:51.972Z,0
2023-04-02T19:08:13.085Z,0
2023-04-02T19:09:34.188Z,0
2023-04-02T19:10:55.307Z,0
2023-04-02T19:12:15.439Z,0
2023-04-02T19:13:36.543Z,0
2023-04-02T19:14:57.890Z,0
2023-04-02T19:16:18.769Z,0
2023-04-02T19:17:39.866Z,0
2023-04-02T19:19:00.991Z,0
2023-04-02T19:20:21.119Z,0
2023-04-02T19:21:42.222Z,0
2023-04-02T19:23:03.338Z,0
2023-04-02T19:24:24.424Z,0
2023-04-02T19:25:45.553Z,0
2023-04-02T19:27:06.661Z,0
2023-04-02T19:28:27.755Z,0
2023-04-02T19:29:48.871Z,0
2023-04-02T19:31:09.975Z,0
2023-04-02T19:32:31.074Z,0
2023-04-02T19:33:52.211Z,0
2023-04-02T19:35:13.306Z,0
2023-04-02T19:36:34.415Z,0
2023-04-02T19:37:54.549Z,0
2023-04-02T19:39:15.654Z,0
2023-04-02T19:40:36.759Z,0
2023-04-02T19:41:57.869Z,0
2023-04-02T19:43:18.975Z,0
2023-04-02T19:44:40.096Z,0
2023-04-02T19:46:01.195Z,0
2023-04-02T19:47:22.283Z,0
2023-04-02T19:48:43.404Z,0
2023-04-02T19:50:04.525Z,0
2023-04-02T19:51:25.619Z,0
2023-04-02T19:52:46.741Z,0
2023-04-02T19:54:07.845Z,0
2023-04-02T19:55:27.963Z,0
2023-04-02T19:56:49.070Z,0
2023-04-02T19:58:10.424Z,0
2023-04-02T19:59:31.289Z,0
2023-04-02T20:00:52.404Z,0
2023-04-02T20:02:13.506Z,0
2023-04-02T20:03:34.612Z,0
2023-04-02T20:04:55.709Z,0
2023-04-02T20:06:16.816Z,0
2023-04-02T20:07:37.931Z,0
2023-04-02T20:08:59.038Z,0
2023-04-02T20:10:20.167Z,0
2023-04-02T20:11:41.265Z,0
2023-04-02T20:13:01.368Z,0
2023-04-02T20:14:22.489Z,0
2023-04-02T20:15:43.587Z,0
2023-04-02T20:17:04.711Z,0
2023-04-02T20:18:25.820Z,0
2023-04-02T20:19:46.936Z,0
2023-04-02T20:21:08.038Z,0
2023-04-02T20:22:29.150Z,0
2023-04-02T20:23:50.248Z,0
2023-04-02T20:25:11.372Z,0
2023-04-02T20:26:32.470Z,0
2023-04-02T20:27:53.584Z,0
2023-04-02T20:29:14.690Z,0
2023-04-02T20:30:34.822Z,0
2023-04-02T20:31:55.000Z,0
2023-04-02T20:33:17.039Z,0
2023-04-02T20:34:38.150Z,0
2023-04-02T20:35:59.242Z,0
2023-04-02T20:37:20.362Z,0
2023-04-02T20:40:02.582Z,0
2023-04-02T20:41:23.678Z,0
2023-04-02T20:42:44.784Z,0
2023-04-02T20:44:05.900Z,0
2023-04-02T20:45:26.997Z,0
2023-04-02T20:46:48.093Z,0
2023-04-02T20:48:08.000Z,0
2023-04-02T20:49:29.591Z,0
2023-04-02T20:50:50.458Z,0
2023-04-02T20:52:11.554Z,0
2023-04-02T20:53:32.678Z,0
2023-04-02T20:54:53.772Z,0
2023-04-02T20:56:14.896Z,0
2023-04-02T20:57:35.994Z,0
2023-04-02T20:58:57.113Z,0
2023-04-02T21:00:18.214Z,0
2023-04-02T21:01:39.312Z,0
2023-04-02T21:03:00.663Z,0
2023-04-02T21:04:21.530Z,0
2023-04-02T21:05:42.649Z,0
2023-04-02T21:07:02.776Z,0
2023-04-02T21:08:23.871Z,0
2023-04-02T21:09:44.960Z,0
2023-04-02T21:11:06.087Z,0
2023-04-02T21:12:27.211Z,0
2023-04-02T21:13:48.309Z,0
2023-04-02T21:15:09.423Z,0
2023-04-02T21:16:30.531Z,0
2023-04-02T21:17:51.627Z,0
2023-04-02T21:19:12.738Z,0
2023-04-02T21:20:33.860Z,0
2023-04-02T21:21:54.957Z,0
2023-04-02T21:23:16.059Z,0
2023-04-02T21:24:36.194Z,0
2023-04-02T21:25:57.282Z,0
2023-04-02T21:27:18.405Z,0
2023-04-02T21:28:39.000Z,0
2023-04-02T21:30:00.628Z,0
2023-04-02T21:31:21.733Z,0
2023-04-02T21:32:43.076Z,0
2023-04-02T21:34:03.959Z,0
2023-04-02T21:35:25.065Z,0
2023-04-02T21:36:46.144Z,0
2023-04-02T21:38:07.271Z,0
2023-04-02T21:39:28.392Z,0
2023-04-02T21:40:49.475Z,0
2023-04-02T21:42:09.631Z,0
2023-04-02T21:43:30.000Z,0
2023-04-02T21:44:51.829Z,0
2023-04-02T21:46:12.951Z,0
2023-04-02T22:01:33.912Z,0
2023-04-02T22:16:54.892Z,0
2023-04-02T22:32:15.849Z,0
2023-04-02T22:47:36.829Z,0
2023-04-02T23:02:57.794Z,0
2023-04-02T23:18:18.771Z,0
2023-04-02T23:33:39.731Z,0
2023-04-02T23:49:00.704Z,0
